Refer to this partial METAR for Fargo, N.D.:

METAR KFAR 101153Z 11010KT 4SM RA BR SCT050 BKN070 OVC090 17/16 A2957

Where does the ceiling begin and what is the altimeter setting?


5000 feet, 29.57 inches (Hg)


7000 feet, 29.57 millibars (He)


7000 feet, 29.57 inches (Hg)


9000 feet, 29.57 inches (Hg)

If you enjoyed taking this interactive quiz and would like to see more like it, go to the AVweb Brainteaser page. And if you thought it was unfair, confusing, or a waste of time, we'd like you to tell us that, too. And if you have an idea for a subject that you think would make a good future Brainteaser quiz, be sure to let us know.